sensor_id;sensor_type;location;lat;lon;timestamp;pressure;altitude;pressure_sealevel;temperature
73734;BMP280;62039;50.000;9.064;2023-05-10T00:01:38;99575.88;;;16.22
73734;BMP280;62039;50.000;9.064;2023-05-10T00:04:05;99566.78;;;16.11
73734;BMP280;62039;50.000;9.064;2023-05-10T00:06:35;99575.78;;;16.03
73734;BMP280;62039;50.000;9.064;2023-05-10T00:09:02;99574.44;;;15.94
73734;BMP280;62039;50.000;9.064;2023-05-10T00:11:29;99567.38;;;15.88
73734;BMP280;62039;50.000;9.064;2023-05-10T00:13:56;99579.56;;;15.83
73734;BMP280;62039;50.000;9.064;2023-05-10T00:16:22;99577.59;;;15.72
73734;BMP280;62039;50.000;9.064;2023-05-10T00:18:49;99573.63;;;15.62
73734;BMP280;62039;50.000;9.064;2023-05-10T00:21:16;99575.47;;;15.55
73734;BMP280;62039;50.000;9.064;2023-05-10T00:23:46;99572.06;;;15.48
73734;BMP280;62039;50.000;9.064;2023-05-10T00:26:13;99576.31;;;15.43
73734;BMP280;62039;50.000;9.064;2023-05-10T00:28:40;99576.72;;;15.40
73734;BMP280;62039;50.000;9.064;2023-05-10T00:31:07;99574.53;;;15.37
73734;BMP280;62039;50.000;9.064;2023-05-10T00:33:34;99579.59;;;15.31
73734;BMP280;62039;50.000;9.064;2023-05-10T00:36:01;99574.97;;;15.27
73734;BMP280;62039;50.000;9.064;2023-05-10T00:38:27;99578.81;;;15.24
73734;BMP280;62039;50.000;9.064;2023-05-10T00:40:57;99587.34;;;15.20
73734;BMP280;62039;50.000;9.064;2023-05-10T00:43:24;99584.72;;;15.13
73734;BMP280;62039;50.000;9.064;2023-05-10T00:45:51;99588.78;;;15.09
73734;BMP280;62039;50.000;9.064;2023-05-10T00:48:19;99584.38;;;15.03
73734;BMP280;62039;50.000;9.064;2023-05-10T00:50:46;99588.59;;;14.98
73734;BMP280;62039;50.000;9.064;2023-05-10T00:53:14;99588.41;;;14.92
73734;BMP280;62039;50.000;9.064;2023-05-10T00:55:41;99590.66;;;14.89
73734;BMP280;62039;50.000;9.064;2023-05-10T00:58:11;99591.88;;;14.86
73734;BMP280;62039;50.000;9.064;2023-05-10T01:00:41;99592.06;;;14.85
73734;BMP280;62039;50.000;9.064;2023-05-10T01:03:09;99588.88;;;14.83
73734;BMP280;62039;50.000;9.064;2023-05-10T01:05:37;99588.88;;;14.83
73734;BMP280;62039;50.000;9.064;2023-05-10T01:08:04;99588.88;;;14.83
73734;BMP280;62039;50.000;9.064;2023-05-10T01:10:31;99585.63;;;14.81
73734;BMP280;62039;50.000;9.064;2023-05-10T01:12:59;99597.53;;;14.77
73734;BMP280;62039;50.000;9.064;2023-05-10T01:15:29;99591.69;;;14.75
73734;BMP280;62039;50.000;9.064;2023-05-10T01:17:57;99598.34;;;14.71
73734;BMP280;62039;50.000;9.064;2023-05-10T01:20:24;99594.91;;;14.64
73734;BMP280;62039;50.000;9.064;2023-05-10T01:23:10;99594.09;;;14.57
73734;BMP280;62039;50.000;9.064;2023-05-10T01:26:07;99596.97;;;14.48
73734;BMP280;62039;50.000;9.064;2023-05-10T01:29:07;99592.53;;;14.42
73734;BMP280;62039;50.000;9.064;2023-05-10T01:32:08;99603.41;;;14.39
73734;BMP280;62039;50.000;9.064;2023-05-10T01:34:43;99594.53;;;14.40
73734;BMP280;62039;50.000;9.064;2023-05-10T01:37:20;99602.22;;;14.42
73734;BMP280;62039;50.000;9.064;2023-05-10T01:39:51;99602.81;;;14.44
73734;BMP280;62039;50.000;9.064;2023-05-10T01:42:23;99613.31;;;14.44
73734;BMP280;62039;50.000;9.064;2023-05-10T01:44:58;99606.25;;;14.44
73734;BMP280;62039;50.000;9.064;2023-05-10T01:47:33;99616.94;;;14.43
73734;BMP280;62039;50.000;9.064;2023-05-10T01:50:03;99615.94;;;14.44
73734;BMP280;62039;50.000;9.064;2023-05-10T01:52:33;99615.13;;;14.43
73734;BMP280;62039;50.000;9.064;2023-05-10T01:55:06;99616.94;;;14.43
73734;BMP280;62039;50.000;9.064;2023-05-10T01:57:34;99627.44;;;14.43
73734;BMP280;62039;50.000;9.064;2023-05-10T02:00:04;99619.56;;;14.43
73734;BMP280;62039;50.000;9.064;2023-05-10T02:02:37;99620.38;;;14.43
73734;BMP280;62039;50.000;9.064;2023-05-10T02:05:06;99628.25;;;14.43
73734;BMP280;62039;50.000;9.064;2023-05-10T02:07:36;99629.06;;;14.44
73734;BMP280;62039;50.000;9.064;2023-05-10T02:10:05;99632.50;;;14.44
73734;BMP280;62039;50.000;9.064;2023-05-10T02:12:35;99629.06;;;14.44
73734;BMP280;62039;50.000;9.064;2023-05-10T02:15:04;99632.50;;;14.44
73734;BMP280;62039;50.000;9.064;2023-05-10T02:17:35;99633.31;;;14.45
73734;BMP280;62039;50.000;9.064;2023-05-10T02:20:06;99627.25;;;14.44
73734;BMP280;62039;50.000;9.064;2023-05-10T02:22:35;99632.50;;;14.44
73734;BMP280;62039;50.000;9.064;2023-05-10T02:25:03;99635.75;;;14.46
73734;BMP280;62039;50.000;9.064;2023-05-10T02:27:30;99635.75;;;14.46
73734;BMP280;62039;50.000;9.064;2023-05-10T02:29:58;99642.63;;;14.47
73734;BMP280;62039;50.000;9.064;2023-05-10T02:32:27;99648.69;;;14.48
73734;BMP280;62039;50.000;9.064;2023-05-10T02:35:00;99654.16;;;14.46
73734;BMP280;62039;50.000;9.064;2023-05-10T02:37:28;99647.06;;;14.47
73734;BMP280;62039;50.000;9.064;2023-05-10T02:39:56;99647.88;;;14.47
73734;BMP280;62039;50.000;9.064;2023-05-10T02:42:25;99643.44;;;14.48
73734;BMP280;62039;50.000;9.064;2023-05-10T02:44:55;99645.84;;;14.49
73734;BMP280;62039;50.000;9.064;2023-05-10T02:47:23;99645.06;;;14.49
73734;BMP280;62039;50.000;9.064;2023-05-10T02:49:50;99649.28;;;14.50
73734;BMP280;62039;50.000;9.064;2023-05-10T02:52:24;99648.28;;;14.51
73734;BMP280;62039;50.000;9.064;2023-05-10T02:54:55;99649.09;;;14.51
73734;BMP280;62039;50.000;9.064;2023-05-10T02:57:26;99650.72;;;14.52
73734;BMP280;62039;50.000;9.064;2023-05-10T02:59:54;99649.91;;;14.52
73734;BMP280;62039;50.000;9.064;2023-05-10T03:02:21;99653.53;;;14.51
73734;BMP280;62039;50.000;9.064;2023-05-10T03:04:48;99652.13;;;14.48
73734;BMP280;62039;50.000;9.064;2023-05-10T03:07:15;99657.41;;;14.48
73734;BMP280;62039;50.000;9.064;2023-05-10T03:09:45;99654.75;;;14.48
73734;BMP280;62039;50.000;9.064;2023-05-10T03:12:15;99649.50;;;14.48
73734;BMP280;62039;50.000;9.064;2023-05-10T03:14:56;99650.50;;;14.47
73734;BMP280;62039;50.000;9.064;2023-05-10T03:17:29;99662.66;;;14.48
73734;BMP280;62039;50.000;9.064;2023-05-10T03:19:58;99664.47;;;14.48
73734;BMP280;62039;50.000;9.064;2023-05-10T03:22:31;99665.28;;;14.48
73734;BMP280;62039;50.000;9.064;2023-05-10T03:25:05;99665.47;;;14.47
73734;BMP280;62039;50.000;9.064;2023-05-10T03:27:34;99661.41;;;14.44
73734;BMP280;62039;50.000;9.064;2023-05-10T03:30:02;99663.03;;;14.45
73734;BMP280;62039;50.000;9.064;2023-05-10T03:32:30;99666.66;;;14.44
73734;BMP280;62039;50.000;9.064;2023-05-10T03:34:57;99665.84;;;14.44
73734;BMP280;62039;50.000;9.064;2023-05-10T03:37:23;99674.56;;;14.44
73734;BMP280;62039;50.000;9.064;2023-05-10T03:39:50;99669.31;;;14.44
73734;BMP280;62039;50.000;9.064;2023-05-10T03:42:20;99674.56;;;14.44
73734;BMP280;62039;50.000;9.064;2023-05-10T03:44:47;99669.72;;;14.41
73734;BMP280;62039;50.000;9.064;2023-05-10T03:47:14;99677.78;;;14.40
73734;BMP280;62039;50.000;9.064;2023-05-10T03:49:41;99684.84;;;14.39
73734;BMP280;62039;50.000;9.064;2023-05-10T03:52:08;99683.03;;;14.40
73734;BMP280;62039;50.000;9.064;2023-05-10T03:54:35;99682.22;;;14.39
73734;BMP280;62039;50.000;9.064;2023-05-10T03:57:02;99690.13;;;14.39
73734;BMP280;62039;50.000;9.064;2023-05-10T03:59:31;99687.50;;;14.39
73734;BMP280;62039;50.000;9.064;2023-05-10T04:01:58;99690.31;;;14.38
73734;BMP280;62039;50.000;9.064;2023-05-10T04:04:25;99682.44;;;14.38
73734;BMP280;62039;50.000;9.064;2023-05-10T04:06:52;99679.22;;;14.36
73734;BMP280;62039;50.000;9.064;2023-05-10T04:09:19;99680.59;;;14.38
73734;BMP280;62039;50.000;9.064;2023-05-10T04:11:46;99685.88;;;14.38
73734;BMP280;62039;50.000;9.064;2023-05-10T04:14:13;99684.25;;;14.37
73734;BMP280;62039;50.000;9.064;2023-05-10T04:16:42;99679.81;;;14.38
73734;BMP280;62039;50.000;9.064;2023-05-10T04:19:09;99690.31;;;14.38
73734;BMP280;62039;50.000;9.064;2023-05-10T04:21:36;99684.25;;;14.37
73734;BMP280;62039;50.000;9.064;2023-05-10T04:24:04;99692.34;;;14.36
73734;BMP280;62039;50.000;9.064;2023-05-10T04:26:31;99694.16;;;14.35
73734;BMP280;62039;50.000;9.064;2023-05-10T04:28:58;99697.59;;;14.36
73734;BMP280;62039;50.000;9.064;2023-05-10T04:31:25;99696.78;;;14.35
73734;BMP280;62039;50.000;9.064;2023-05-10T04:33:54;99701.81;;;14.37
73734;BMP280;62039;50.000;9.064;2023-05-10T04:36:21;99703.63;;;14.36
73734;BMP280;62039;50.000;9.064;2023-05-10T04:38:48;99703.63;;;14.36
73734;BMP280;62039;50.000;9.064;2023-05-10T04:41:15;99708.88;;;14.36
73734;BMP280;62039;50.000;9.064;2023-05-10T04:43:42;99707.28;;;14.35
73734;BMP280;62039;50.000;9.064;2023-05-10T04:46:09;99708.88;;;14.36
73734;BMP280;62039;50.000;9.064;2023-05-10T04:48:36;99710.50;;;14.37
73734;BMP280;62039;50.000;9.064;2023-05-10T04:51:05;99714.75;;;14.38
73734;BMP280;62039;50.000;9.064;2023-05-10T04:53:33;99716.59;;;14.38
73734;BMP280;62039;50.000;9.064;2023-05-10T04:56:00;99713.75;;;14.39
73734;BMP280;62039;50.000;9.064;2023-05-10T04:58:26;99718.00;;;14.40
73734;BMP280;62039;50.000;9.064;2023-05-10T05:00:53;99720.84;;;14.39
73734;BMP280;62039;50.000;9.064;2023-05-10T05:03:20;99715.38;;;14.40
73734;BMP280;62039;50.000;9.064;2023-05-10T05:05:47;99725.09;;;14.40
73734;BMP280;62039;50.000;9.064;2023-05-10T05:08:17;99722.25;;;14.41
73734;BMP280;62039;50.000;9.064;2023-05-10T05:10:44;99726.50;;;14.42
73734;BMP280;62039;50.000;9.064;2023-05-10T05:13:12;99725.47;;;14.43
73734;BMP280;62039;50.000;9.064;2023-05-10T05:15:39;99732.34;;;14.44
73734;BMP280;62039;50.000;9.064;2023-05-10T05:18:06;99723.47;;;14.45
73734;BMP280;62039;50.000;9.064;2023-05-10T05:20:33;99733.59;;;14.48
73734;BMP280;62039;50.000;9.064;2023-05-10T05:23:00;99743.06;;;14.49
73734;BMP280;62039;50.000;9.064;2023-05-10T05:25:29;99743.69;;;14.51
73734;BMP280;62039;50.000;9.064;2023-05-10T05:27:56;99747.13;;;14.52
73734;BMP280;62039;50.000;9.064;2023-05-10T05:30:23;99746.94;;;14.53
73734;BMP280;62039;50.000;9.064;2023-05-10T05:32:50;99745.13;;;14.54
73734;BMP280;62039;50.000;9.064;2023-05-10T05:35:17;99747.56;;;14.56
73734;BMP280;62039;50.000;9.064;2023-05-10T05:37:45;99746.53;;;14.57
73734;BMP280;62039;50.000;9.064;2023-05-10T05:40:12;99747.94;;;14.59
73734;BMP280;62039;50.000;9.064;2023-05-10T05:42:42;99752.19;;;14.60
73734;BMP280;62039;50.000;9.064;2023-05-10T05:45:09;99751.41;;;14.60
73734;BMP280;62039;50.000;9.064;2023-05-10T05:47:36;99750.38;;;14.61
73734;BMP280;62039;50.000;9.064;2023-05-10T05:50:04;99755.44;;;14.62
73734;BMP280;62039;50.000;9.064;2023-05-10T05:52:31;99750.38;;;14.61
73734;BMP280;62039;50.000;9.064;2023-05-10T05:54:58;99749.38;;;14.62
73734;BMP280;62039;50.000;9.064;2023-05-10T05:57:25;99745.31;;;14.59
73734;BMP280;62039;50.000;9.064;2023-05-10T05:59:54;99759.28;;;14.60
73734;BMP280;62039;50.000;9.064;2023-05-10T06:02:21;99754.22;;;14.58
73734;BMP280;62039;50.000;9.064;2023-05-10T06:04:48;99762.28;;;14.57
73734;BMP280;62039;50.000;9.064;2023-05-10T06:07:15;99764.91;;;14.57
73734;BMP280;62039;50.000;9.064;2023-05-10T06:09:42;99766.75;;;14.56
73734;BMP280;62039;50.000;9.064;2023-05-10T06:12:09;99759.66;;;14.57
73734;BMP280;62039;50.000;9.064;2023-05-10T06:14:36;99760.69;;;14.56
73734;BMP280;62039;50.000;9.064;2023-05-10T06:17:05;99766.34;;;14.52
73734;BMP280;62039;50.000;9.064;2023-05-10T06:19:32;99772.59;;;14.51
73734;BMP280;62039;50.000;9.064;2023-05-10T06:21:59;99771.19;;;14.49
73734;BMP280;62039;50.000;9.064;2023-05-10T06:24:26;99782.50;;;14.49
73734;BMP280;62039;50.000;9.064;2023-05-10T06:26:53;99772.78;;;14.50
73734;BMP280;62039;50.000;9.064;2023-05-10T06:29:20;99781.28;;;14.52
73734;BMP280;62039;50.000;9.064;2023-05-10T06:31:47;99787.38;;;14.52
73734;BMP280;62039;50.000;9.064;2023-05-10T06:34:16;99784.53;;;14.54
73734;BMP280;62039;50.000;9.064;2023-05-10T06:36:43;99789.59;;;14.56
73734;BMP280;62039;50.000;9.064;2023-05-10T06:39:10;99790.41;;;14.56
73734;BMP280;62039;50.000;9.064;2023-05-10T06:41:37;99786.97;;;14.56
73734;BMP280;62039;50.000;9.064;2023-05-10T06:44:04;99786.97;;;14.56
73734;BMP280;62039;50.000;9.064;2023-05-10T06:46:31;99781.72;;;14.56
73734;BMP280;62039;50.000;9.064;2023-05-10T06:48:58;99793.03;;;14.56
73734;BMP280;62039;50.000;9.064;2023-05-10T06:51:27;99793.81;;;14.57
73734;BMP280;62039;50.000;9.064;2023-05-10T06:53:54;99799.09;;;14.57
73734;BMP280;62039;50.000;9.064;2023-05-10T06:56:21;99792.81;;;14.58
73734;BMP280;62039;50.000;9.064;2023-05-10T06:58:48;99799.91;;;14.57
73734;BMP280;62039;50.000;9.064;2023-05-10T07:01:15;99797.06;;;14.59
73734;BMP280;62039;50.000;9.064;2023-05-10T07:03:42;99801.72;;;14.57
73734;BMP280;62039;50.000;9.064;2023-05-10T07:06:09;99801.72;;;14.57
73734;BMP280;62039;50.000;9.064;2023-05-10T07:08:53;99803.75;;;14.55
73734;BMP280;62039;50.000;9.064;2023-05-10T07:11:20;99804.13;;;14.51
73734;BMP280;62039;50.000;9.064;2023-05-10T07:13:47;99805.13;;;14.50
73734;BMP280;62039;50.000;9.064;2023-05-10T07:16:14;99806.13;;;14.49
73734;BMP280;62039;50.000;9.064;2023-05-10T07:18:41;99803.50;;;14.49
73734;BMP280;62039;50.000;9.064;2023-05-10T07:21:08;99807.97;;;14.49
73734;BMP280;62039;50.000;9.064;2023-05-10T07:23:35;99816.06;;;14.47
73734;BMP280;62039;50.000;9.064;2023-05-10T07:26:05;99810.81;;;14.47
73734;BMP280;62039;50.000;9.064;2023-05-10T07:28:32;99816.06;;;14.47
73734;BMP280;62039;50.000;9.064;2023-05-10T07:30:59;99810.81;;;14.47
73734;BMP280;62039;50.000;9.064;2023-05-10T07:33:26;99814.44;;;14.46
73734;BMP280;62039;50.000;9.064;2023-05-10T07:35:52;99814.63;;;14.45
73734;BMP280;62039;50.000;9.064;2023-05-10T07:38:19;99822.13;;;14.48
73734;BMP280;62039;50.000;9.064;2023-05-10T07:40:46;99822.72;;;14.50
73734;BMP280;62039;50.000;9.064;2023-05-10T07:43:16;99821.53;;;14.52
73734;BMP280;62039;50.000;9.064;2023-05-10T07:45:43;99816.88;;;14.55
73734;BMP280;62039;50.000;9.064;2023-05-10T07:48:10;99833.06;;;14.58
73734;BMP280;62039;50.000;9.064;2023-05-10T07:50:37;99827.41;;;14.61
73734;BMP280;62039;50.000;9.064;2023-05-10T07:53:04;99827.81;;;14.65
73734;BMP280;62039;50.000;9.064;2023-05-10T07:55:30;99831.06;;;14.67
73734;BMP280;62039;50.000;9.064;2023-05-10T07:57:57;99830.06;;;14.68
73734;BMP280;62039;50.000;9.064;2023-05-10T08:00:27;99834.31;;;14.69
73734;BMP280;62039;50.000;9.064;2023-05-10T08:02:54;99834.31;;;14.69
73734;BMP280;62039;50.000;9.064;2023-05-10T08:05:21;99832.28;;;14.71
73734;BMP280;62039;50.000;9.064;2023-05-10T08:07:48;99839.97;;;14.72
73734;BMP280;62039;50.000;9.064;2023-05-10T08:10:15;99845.69;;;14.76
73734;BMP280;62039;50.000;9.064;2023-05-10T08:12:42;99839.41;;;14.77
73734;BMP280;62039;50.000;9.064;2023-05-10T08:15:10;99843.28;;;14.81
73734;BMP280;62039;50.000;9.064;2023-05-10T08:17:39;99841.66;;;14.86
73734;BMP280;62039;50.000;9.064;2023-05-10T08:20:07;99844.09;;;14.88
73734;BMP280;62039;50.000;9.064;2023-05-10T08:22:34;99843.09;;;14.89
73734;BMP280;62039;50.000;9.064;2023-05-10T08:25:01;99846.31;;;14.91
73734;BMP280;62039;50.000;9.064;2023-05-10T08:27:28;99846.72;;;14.95
73734;BMP280;62039;50.000;9.064;2023-05-10T08:29:55;99852.38;;;14.98
73734;BMP280;62039;50.000;9.064;2023-05-10T08:32:22;99856.25;;;15.02
73734;BMP280;62039;50.000;9.064;2023-05-10T08:34:51;99855.84;;;15.05
73734;BMP280;62039;50.000;9.064;2023-05-10T08:37:18;99851.38;;;15.06
73734;BMP280;62039;50.000;9.064;2023-05-10T08:39:45;99854.63;;;15.08
73734;BMP280;62039;50.000;9.064;2023-05-10T08:42:12;99861.09;;;15.12
73734;BMP280;62039;50.000;9.064;2023-05-10T08:44:42;99862.53;;;15.14
73734;BMP280;62039;50.000;9.064;2023-05-10T08:47:10;99861.09;;;15.18
73734;BMP280;62039;50.000;9.064;2023-05-10T08:49:38;99860.91;;;15.20
73734;BMP280;62039;50.000;9.064;2023-05-10T08:52:10;99855.84;;;15.25
73734;BMP280;62039;50.000;9.064;2023-05-10T08:54:39;99867.63;;;15.29
73734;BMP280;62039;50.000;9.064;2023-05-10T08:57:06;99859.91;;;15.34
73734;BMP280;62039;50.000;9.064;2023-05-10T08:59:33;99868.81;;;15.40
73734;BMP280;62039;50.000;9.064;2023-05-10T09:02:00;99865.38;;;15.46
73734;BMP280;62039;50.000;9.064;2023-05-10T09:04:28;99867.22;;;15.52
73734;BMP280;62039;50.000;9.064;2023-05-10T09:06:56;99869.03;;;15.58
73734;BMP280;62039;50.000;9.064;2023-05-10T09:09:27;99864.56;;;15.65
73734;BMP280;62039;50.000;9.064;2023-05-10T09:11:54;99875.91;;;15.72
73734;BMP280;62039;50.000;9.064;2023-05-10T09:14:24;99875.09;;;15.78
73734;BMP280;62039;50.000;9.064;2023-05-10T09:16:51;99873.69;;;15.82
73734;BMP280;62039;50.000;9.064;2023-05-10T09:19:19;99872.44;;;15.85
73734;BMP280;62039;50.000;9.064;2023-05-10T09:21:46;99876.69;;;15.86
73734;BMP280;62039;50.000;9.064;2023-05-10T09:24:13;99869.22;;;15.89
73734;BMP280;62039;50.000;9.064;2023-05-10T09:26:48;99879.13;;;15.94
73734;BMP280;62039;50.000;9.064;2023-05-10T09:29:15;99875.28;;;15.96
73734;BMP280;62039;50.000;9.064;2023-05-10T09:31:45;99879.31;;;15.99
73734;BMP280;62039;50.000;9.064;2023-05-10T09:34:16;99872.84;;;16.01
73734;BMP280;62039;50.000;9.064;2023-05-10T09:36:53;99880.31;;;16.04
73734;BMP280;62039;50.000;9.064;2023-05-10T09:39:20;99880.91;;;16.06
73734;BMP280;62039;50.000;9.064;2023-05-10T09:41:50;99881.91;;;16.12
73734;BMP280;62039;50.000;9.064;2023-05-10T09:44:17;99885.78;;;16.16
73734;BMP280;62039;50.000;9.064;2023-05-10T09:46:49;99887.81;;;16.21
73734;BMP280;62039;50.000;9.064;2023-05-10T09:49:15;99901.19;;;16.19
73734;BMP280;62039;50.000;9.064;2023-05-10T09:51:42;99897.53;;;16.14
73734;BMP280;62039;50.000;9.064;2023-05-10T09:54:11;99900.59;;;16.11
73734;BMP280;62039;50.000;9.064;2023-05-10T09:56:38;99898.75;;;16.04
73734;BMP280;62039;50.000;9.064;2023-05-10T09:59:11;99906.47;;;15.99
73734;BMP280;62039;50.000;9.064;2023-05-10T10:01:38;99903.44;;;15.96
73734;BMP280;62039;50.000;9.064;2023-05-10T10:04:07;99907.28;;;15.93
73734;BMP280;62039;50.000;9.064;2023-05-10T10:06:37;99901.84;;;15.88
73734;BMP280;62039;50.000;9.064;2023-05-10T10:09:04;99900.59;;;15.84
73734;BMP280;62039;50.000;9.064;2023-05-10T10:11:33;99900.84;;;15.83
73734;BMP280;62039;50.000;9.064;2023-05-10T10:14:00;99899.00;;;15.83
73734;BMP280;62039;50.000;9.064;2023-05-10T10:16:31;99891.69;;;15.85
73734;BMP280;62039;50.000;9.064;2023-05-10T10:18:59;99888.66;;;15.88
73734;BMP280;62039;50.000;9.064;2023-05-10T10:21:26;99889.03;;;15.92
73734;BMP280;62039;50.000;9.064;2023-05-10T10:23:53;99891.09;;;15.96
73734;BMP280;62039;50.000;9.064;2023-05-10T10:26:21;99890.66;;;15.99
73734;BMP280;62039;50.000;9.064;2023-05-10T10:28:51;99897.16;;;16.03
73734;BMP280;62039;50.000;9.064;2023-05-10T10:31:32;99904.81;;;16.05
73734;BMP280;62039;50.000;9.064;2023-05-10T10:34:05;99908.88;;;16.07
73734;BMP280;62039;50.000;9.064;2023-05-10T10:36:32;99910.06;;;16.12
73734;BMP280;62039;50.000;9.064;2023-05-10T10:39:01;99917.81;;;16.20
73734;BMP280;62039;50.000;9.064;2023-05-10T10:41:30;99919.84;;;16.24
73734;BMP280;62039;50.000;9.064;2023-05-10T10:44:25;99918.38;;;16.28
73734;BMP280;62039;50.000;9.064;2023-05-10T10:47:03;99923.84;;;16.33
73734;BMP280;62039;50.000;9.064;2023-05-10T10:49:31;99918.56;;;16.40
73734;BMP280;62039;50.000;9.064;2023-05-10T10:52:21;99926.25;;;16.48
73734;BMP280;62039;50.000;9.064;2023-05-10T10:54:51;99919.50;;;16.52
73734;BMP280;62039;50.000;9.064;2023-05-10T10:57:19;99924.59;;;16.54
73734;BMP280;62039;50.000;9.064;2023-05-10T10:59:47;99922.75;;;16.54
73734;BMP280;62039;50.000;9.064;2023-05-10T11:02:36;99918.50;;;16.53
73734;BMP280;62039;50.000;9.064;2023-05-10T11:08:11;99930.66;;;16.54
73734;BMP280;62039;50.000;9.064;2023-05-10T11:10:39;99931.28;;;16.56
73734;BMP280;62039;50.000;9.064;2023-05-10T11:13:08;99927.41;;;16.59
73734;BMP280;62039;50.000;9.064;2023-05-10T11:15:36;99922.75;;;16.61
73734;BMP280;62039;50.000;9.064;2023-05-10T11:18:24;99922.53;;;16.62
73734;BMP280;62039;50.000;9.064;2023-05-10T11:20:52;99921.53;;;16.63
73734;BMP280;62039;50.000;9.064;2023-05-10T11:23:22;99917.63;;;16.66
73734;BMP280;62039;50.000;9.064;2023-05-10T11:25:49;99919.25;;;16.67
73734;BMP280;62039;50.000;9.064;2023-05-10T11:28:19;99914.78;;;16.67
73734;BMP280;62039;50.000;9.064;2023-05-10T11:30:47;99914.78;;;16.67
73734;BMP280;62039;50.000;9.064;2023-05-10T11:33:18;99913.56;;;16.70
73734;BMP280;62039;50.000;9.064;2023-05-10T11:35:47;99916.00;;;16.71
73734;BMP280;62039;50.000;9.064;2023-05-10T11:38:15;99920.25;;;16.72
73734;BMP280;62039;50.000;9.064;2023-05-10T11:40:42;99919.84;;;16.75
73734;BMP280;62039;50.000;9.064;2023-05-10T11:43:09;99924.66;;;16.78
73734;BMP280;62039;50.000;9.064;2023-05-10T11:45:37;99921.63;;;16.81
73734;BMP280;62039;50.000;9.064;2023-05-10T11:48:04;99926.50;;;16.84
73734;BMP280;62039;50.000;9.064;2023-05-10T11:50:31;99933.97;;;16.87
73734;BMP280;62039;50.000;9.064;2023-05-10T11:53:01;99930.72;;;16.92
73734;BMP280;62039;50.000;9.064;2023-05-10T11:55:28;99937.41;;;16.95
73734;BMP280;62039;50.000;9.064;2023-05-10T11:58:00;99946.53;;;16.99
73734;BMP280;62039;50.000;9.064;2023-05-10T12:00:28;99943.88;;;16.99
73734;BMP280;62039;50.000;9.064;2023-05-10T12:02:55;99944.94;;;16.98
73734;BMP280;62039;50.000;9.064;2023-05-10T12:05:22;99944.31;;;16.96
73734;BMP280;62039;50.000;9.064;2023-05-10T12:07:50;99947.16;;;16.94
73734;BMP280;62039;50.000;9.064;2023-05-10T12:10:26;99941.88;;;16.94
73734;BMP280;62039;50.000;9.064;2023-05-10T12:12:53;99952.44;;;16.94
73734;BMP280;62039;50.000;9.064;2023-05-10T12:15:21;99949.59;;;16.96
73734;BMP280;62039;50.000;9.064;2023-05-10T12:17:49;99954.88;;;16.96
73734;BMP280;62039;50.000;9.064;2023-05-10T12:20:17;99950.19;;;16.98
73734;BMP280;62039;50.000;9.064;2023-05-10T12:22:49;99945.94;;;16.97
73734;BMP280;62039;50.000;9.064;2023-05-10T12:25:20;99948.56;;;16.97
73734;BMP280;62039;50.000;9.064;2023-05-10T12:27:50;99942.91;;;16.93
73734;BMP280;62039;50.000;9.064;2023-05-10T12:30:21;99945.78;;;16.92
73734;BMP280;62039;50.000;9.064;2023-05-10T12:32:49;99946.16;;;16.88
73734;BMP280;62039;50.000;9.064;2023-05-10T12:35:16;99953.25;;;16.88
73734;BMP280;62039;50.000;9.064;2023-05-10T12:37:43;99947.16;;;16.87
73734;BMP280;62039;50.000;9.064;2023-05-10T12:40:11;99954.88;;;16.89
73734;BMP280;62039;50.000;9.064;2023-05-10T12:42:41;99952.22;;;16.89
73734;BMP280;62039;50.000;9.064;2023-05-10T12:45:09;99953.06;;;16.90
73734;BMP280;62039;50.000;9.064;2023-05-10T12:47:36;99946.56;;;16.92
73734;BMP280;62039;50.000;9.064;2023-05-10T12:50:05;99955.69;;;16.96
73734;BMP280;62039;50.000;9.064;2023-05-10T12:52:32;99945.50;;;17.00
73734;BMP280;62039;50.000;9.064;2023-05-10T12:55:00;99949.94;;;17.06
73734;BMP280;62039;50.000;9.064;2023-05-10T12:57:27;99943.84;;;17.12
73734;BMP280;62039;50.000;9.064;2023-05-10T12:59:56;99956.19;;;17.18
73734;BMP280;62039;50.000;9.064;2023-05-10T13:02:23;99955.31;;;17.24
73734;BMP280;62039;50.000;9.064;2023-05-10T13:04:50;99946.56;;;17.30
73734;BMP280;62039;50.000;9.064;2023-05-10T13:07:18;99945.09;;;17.34
73734;BMP280;62039;50.000;9.064;2023-05-10T13:09:45;99944.84;;;17.42
73734;BMP280;62039;50.000;9.064;2023-05-10T13:12:12;99941.94;;;17.50
73734;BMP280;62039;50.000;9.064;2023-05-10T13:14:39;99936.63;;;17.57
73734;BMP280;62039;50.000;9.064;2023-05-10T13:17:08;99937.97;;;17.66
73734;BMP280;62039;50.000;9.064;2023-05-10T13:19:36;99941.16;;;17.75
73734;BMP280;62039;50.000;9.064;2023-05-10T13:22:03;99935.59;;;17.83
73734;BMP280;62039;50.000;9.064;2023-05-10T13:24:30;99928.00;;;17.93
73734;BMP280;62039;50.000;9.064;2023-05-10T13:26:58;99933.00;;;18.01
73734;BMP280;62039;50.000;9.064;2023-05-10T13:29:25;99927.44;;;18.09
73734;BMP280;62039;50.000;9.064;2023-05-10T13:31:51;99930.81;;;18.16
73734;BMP280;62039;50.000;9.064;2023-05-10T13:34:21;99933.59;;;18.21
73734;BMP280;62039;50.000;9.064;2023-05-10T13:36:48;99928.50;;;18.26
73734;BMP280;62039;50.000;9.064;2023-05-10T13:39:16;99928.66;;;18.31
73734;BMP280;62039;50.000;9.064;2023-05-10T13:41:43;99921.66;;;18.37
73734;BMP280;62039;50.000;9.064;2023-05-10T13:44:12;99928.94;;;18.41
73734;BMP280;62039;50.000;9.064;2023-05-10T13:46:39;99928.03;;;18.48
73734;BMP280;62039;50.000;9.064;2023-05-10T13:49:06;99927.63;;;18.51
73734;BMP280;62039;50.000;9.064;2023-05-10T13:51:36;99929.22;;;18.52
73734;BMP280;62039;50.000;9.064;2023-05-10T13:54:03;99923.28;;;18.56
73734;BMP280;62039;50.000;9.064;2023-05-10T13:56:30;99924.44;;;18.60
73734;BMP280;62039;50.000;9.064;2023-05-10T13:58:57;99921.78;;;18.60
73734;BMP280;62039;50.000;9.064;2023-05-10T14:01:24;99923.66;;;18.60
73734;BMP280;62039;50.000;9.064;2023-05-10T14:03:51;99912.47;;;18.58
73734;BMP280;62039;50.000;9.064;2023-05-10T14:06:18;99915.72;;;18.60
73734;BMP280;62039;50.000;9.064;2023-05-10T14:08:48;99907.31;;;18.63
73734;BMP280;62039;50.000;9.064;2023-05-10T14:11:15;99902.16;;;18.68
73734;BMP280;62039;50.000;9.064;2023-05-10T14:13:42;99903.13;;;18.73
73734;BMP280;62039;50.000;9.064;2023-05-10T14:16:09;99906.13;;;18.77
73734;BMP280;62039;50.000;9.064;2023-05-10T14:18:36;99904.63;;;18.81
73734;BMP280;62039;50.000;9.064;2023-05-10T14:21:05;99901.53;;;18.84